SDM341 ULLI-ULMM
Flight info
| Callsign | SDM341 |
|---|---|
| Flight time | N/A |
| Altitude | 37000 |
| Route | PETAP T457 LULOR/K0850F340 T693 ASGOR |
| Aircraft | T154/M-SDGRWY/S |
Departure
| Time | N/A |
|---|---|
| Airport | Pulkovo Airport (ULLI) |
Arrival
| Time | 2026-05-04 14:12 |
|---|---|
| Airport | Emperor Nicholas II Murmansk Airport (ULMM) |
| Time | Latitude | Longitude | Altitude | Speed | Heading |
|---|---|---|---|---|---|
| 2026-05-04 12:57 | 60.13999 | 29.77923 | 16532 ft | 398 kts | 357° |
| 2026-05-04 12:57 | 60.16777 | 29.78247 | 17198 ft | 402 kts | 357° |
| 2026-05-04 12:57 | 60.19526 | 29.78565 | 17829 ft | 406 kts | 357° |
| 2026-05-04 12:58 | 60.22346 | 29.78891 | 18488 ft | 410 kts | 357° |
| 2026-05-04 12:58 | 60.25182 | 29.79218 | 19135 ft | 414 kts | 357° |
| 2026-05-04 12:58 | 60.28053 | 29.79550 | 19772 ft | 417 kts | 357° |
| 2026-05-04 12:58 | 60.30949 | 29.79886 | 20405 ft | 421 kts | 357° |
| 2026-05-04 12:59 | 60.33885 | 29.80225 | 21013 ft | 425 kts | 357° |
| 2026-05-04 12:59 | 60.36818 | 29.80876 | 21571 ft | 436 kts | 8° |
| 2026-05-04 12:59 | 60.39680 | 29.83077 | 22186 ft | 448 kts | 24° |
| 2026-05-04 12:59 | 60.42371 | 29.86121 | 22744 ft | 453 kts | 25° |
| 2026-05-04 13:00 | 60.45159 | 29.89116 | 23361 ft | 455 kts | 22° |
| 2026-05-04 13:00 | 60.48033 | 29.91884 | 23958 ft | 457 kts | 20° |
| 2026-05-04 13:00 | 60.50922 | 29.94474 | 24482 ft | 462 kts | 19° |
| 2026-05-04 13:00 | 60.53872 | 29.97025 | 25030 ft | 465 kts | 18° |
| 2026-05-04 13:01 | 60.56885 | 29.99599 | 25552 ft | 470 kts | 18° |
| 2026-05-04 13:01 | 60.59856 | 30.02130 | 26163 ft | 472 kts | 18° |
| 2026-05-04 13:01 | 60.62905 | 30.04729 | 26779 ft | 474 kts | 18° |
| 2026-05-04 13:01 | 60.65903 | 30.07289 | 27234 ft | 480 kts | 17° |
| 2026-05-04 13:02 | 60.68963 | 30.09907 | 27786 ft | 484 kts | 17° |
| 2026-05-04 13:02 | 60.72081 | 30.12578 | 28309 ft | 488 kts | 17° |
| 2026-05-04 13:02 | 60.75187 | 30.15245 | 28807 ft | 492 kts | 17° |
| 2026-05-04 13:02 | 60.78354 | 30.17973 | 29312 ft | 496 kts | 17° |
| 2026-05-04 13:03 | 60.81501 | 30.20690 | 29831 ft | 499 kts | 17° |
| 2026-05-04 13:03 | 60.84649 | 30.23413 | 30325 ft | 503 kts | 17° |
| 2026-05-04 13:03 | 60.87872 | 30.26206 | 30817 ft | 506 kts | 17° |
| 2026-05-04 13:03 | 60.91075 | 30.28993 | 31441 ft | 505 kts | 17° |
| 2026-05-04 13:04 | 60.94268 | 30.31777 | 32118 ft | 503 kts | 16° |
| 2026-05-04 13:04 | 60.97420 | 30.34529 | 32751 ft | 501 kts | 16° |
| 2026-05-04 13:04 | 61.00600 | 30.37309 | 33346 ft | 499 kts | 16° |
| 2026-05-04 13:04 | 61.03743 | 30.40062 | 33893 ft | 499 kts | 15° |
| 2026-05-04 13:05 | 61.06923 | 30.42856 | 34531 ft | 495 kts | 16° |
| 2026-05-04 13:05 | 61.10032 | 30.45593 | 35101 ft | 493 kts | 16° |
| 2026-05-04 13:05 | 61.13139 | 30.48323 | 35629 ft | 490 kts | 16° |
| 2026-05-04 13:05 | 61.16209 | 30.51025 | 36097 ft | 488 kts | 16° |
| 2026-05-04 13:06 | 61.19297 | 30.53750 | 36549 ft | 486 kts | 16° |
| 2026-05-04 13:06 | 61.22381 | 30.56482 | 36933 ft | 486 kts | 16° |
| 2026-05-04 13:06 | 61.25442 | 30.59199 | 37225 ft | 487 kts | 17° |
| 2026-05-04 13:06 | 61.28538 | 30.61951 | 37427 ft | 490 kts | 17° |
| 2026-05-04 13:07 | 61.31661 | 30.64727 | 37647 ft | 491 kts | 17° |
| 2026-05-04 13:07 | 61.34820 | 30.67552 | 37866 ft | 491 kts | 18° |
| 2026-05-04 13:07 | 61.37942 | 30.70359 | 38115 ft | 491 kts | 18° |
| 2026-05-04 13:07 | 61.41065 | 30.73169 | 38340 ft | 491 kts | 18° |
| 2026-05-04 13:08 | 61.44162 | 30.75956 | 38537 ft | 491 kts | 18° |
| 2026-05-04 13:08 | 61.47308 | 30.78787 | 38703 ft | 492 kts | 18° |
| 2026-05-04 13:08 | 61.50422 | 30.81592 | 38646 ft | 497 kts | 18° |
| 2026-05-04 13:09 | 61.56755 | 30.87320 | 38661 ft | 502 kts | 18° |
| 2026-05-04 13:09 | 61.63193 | 30.93171 | 38657 ft | 505 kts | 18° |
| 2026-05-04 13:10 | 61.69628 | 30.99045 | 38657 ft | 508 kts | 18° |
| 2026-05-04 13:10 | 61.76053 | 31.04940 | 38656 ft | 509 kts | 18° |
| 2026-05-04 13:11 | 61.82548 | 31.10923 | 38655 ft | 510 kts | 18° |
| 2026-05-04 13:11 | 61.88994 | 31.16889 | 38657 ft | 510 kts | 18° |
| 2026-05-04 13:12 | 61.95488 | 31.22926 | 38652 ft | 510 kts | 18° |
| 2026-05-04 13:12 | 62.01960 | 31.28973 | 38651 ft | 510 kts | 18° |
| 2026-05-04 13:13 | 62.08389 | 31.35006 | 38652 ft | 510 kts | 18° |
| 2026-05-04 13:13 | 62.14890 | 31.41121 | 38660 ft | 510 kts | 18° |
| 2026-05-04 13:14 | 62.21315 | 31.47192 | 38652 ft | 510 kts | 18° |
| 2026-05-04 13:14 | 62.27781 | 31.53343 | 38652 ft | 510 kts | 18° |
| 2026-05-04 13:15 | 62.34279 | 31.59556 | 38653 ft | 510 kts | 18° |
| 2026-05-04 13:15 | 62.40715 | 31.65738 | 38650 ft | 511 kts | 19° |
| 2026-05-04 13:16 | 62.47151 | 31.71982 | 38648 ft | 510 kts | 19° |
| 2026-05-04 13:16 | 62.53600 | 31.78251 | 38645 ft | 511 kts | 19° |
| 2026-05-04 13:17 | 62.60062 | 31.84550 | 38646 ft | 511 kts | 19° |
| 2026-05-04 13:17 | 62.66529 | 31.90884 | 38647 ft | 511 kts | 19° |
| 2026-05-04 13:18 | 62.73006 | 31.97206 | 38648 ft | 509 kts | 16° |
| 2026-05-04 13:18 | 62.76327 | 31.99221 | 38646 ft | 495 kts | 2° |
| 2026-05-04 13:18 | 62.79724 | 31.99476 | 38654 ft | 482 kts | 349° |
| 2026-05-04 13:19 | 62.86327 | 31.98082 | 38659 ft | 484 kts | 349° |
| 2026-05-04 13:19 | 62.93051 | 31.97378 | 38657 ft | 487 kts | 352° |
| 2026-05-04 13:20 | 62.99811 | 31.97006 | 38655 ft | 489 kts | 352° |
| 2026-05-04 13:20 | 63.06583 | 31.96687 | 38654 ft | 490 kts | 352° |
| 2026-05-04 13:21 | 63.13406 | 31.96369 | 38637 ft | 490 kts | 353° |
| 2026-05-04 13:21 | 63.20178 | 31.96059 | 38649 ft | 490 kts | 353° |
| 2026-05-04 13:22 | 63.26958 | 31.95739 | 38657 ft | 490 kts | 353° |
| 2026-05-04 13:22 | 63.33756 | 31.95423 | 38658 ft | 491 kts | 354° |
| 2026-05-04 13:23 | 63.40550 | 31.95718 | 38665 ft | 493 kts | 355° |
| 2026-05-04 13:23 | 63.47368 | 31.96124 | 38670 ft | 493 kts | 355° |
| 2026-05-04 13:24 | 63.54214 | 31.96491 | 38669 ft | 493 kts | 355° |
| 2026-05-04 13:24 | 63.61021 | 31.96838 | 38667 ft | 493 kts | 355° |
| 2026-05-04 13:25 | 63.71252 | 31.97355 | 38670 ft | 493 kts | 355° |
| 2026-05-04 13:25 | 63.78067 | 31.97700 | 38672 ft | 493 kts | 355° |
| 2026-05-04 13:26 | 63.84902 | 31.98050 | 38672 ft | 493 kts | 355° |
| 2026-05-04 13:26 | 63.91726 | 31.98398 | 38661 ft | 493 kts | 355° |
| 2026-05-04 13:27 | 63.98584 | 31.98751 | 38653 ft | 493 kts | 355° |
| 2026-05-04 13:27 | 64.05421 | 31.99104 | 38651 ft | 493 kts | 355° |
| 2026-05-04 13:28 | 64.12241 | 31.99461 | 38621 ft | 494 kts | 355° |
| 2026-05-04 13:28 | 64.19064 | 31.99824 | 38650 ft | 493 kts | 355° |
| 2026-05-04 13:29 | 64.25806 | 32.00179 | 38654 ft | 494 kts | 355° |
| 2026-05-04 13:29 | 64.32613 | 32.00538 | 38652 ft | 494 kts | 355° |
| 2026-05-04 13:30 | 64.39375 | 32.00897 | 38654 ft | 494 kts | 355° |
| 2026-05-04 13:30 | 64.46185 | 32.01279 | 38650 ft | 494 kts | 355° |
| 2026-05-04 13:31 | 64.52997 | 32.01682 | 38653 ft | 494 kts | 355° |
| 2026-05-04 13:31 | 64.59789 | 32.02010 | 38652 ft | 494 kts | 355° |
| 2026-05-04 13:32 | 64.66592 | 32.02360 | 38645 ft | 494 kts | 355° |
| 2026-05-04 13:32 | 64.73407 | 32.02729 | 38657 ft | 494 kts | 355° |
| 2026-05-04 13:33 | 64.80232 | 32.03102 | 38654 ft | 494 kts | 355° |
| 2026-05-04 13:33 | 64.87033 | 32.03475 | 38656 ft | 494 kts | 355° |
| 2026-05-04 13:34 | 64.93835 | 32.03851 | 38647 ft | 494 kts | 355° |
| 2026-05-04 13:34 | 65.00645 | 32.04231 | 38652 ft | 494 kts | 355° |
| 2026-05-04 13:35 | 65.10919 | 32.04809 | 38639 ft | 495 kts | 356° |
| 2026-05-04 13:36 | 65.17724 | 32.05199 | 38651 ft | 493 kts | 356° |
| 2026-05-04 13:36 | 65.24513 | 32.05586 | 38651 ft | 491 kts | 356° |
| 2026-05-04 13:37 | 65.31274 | 32.05973 | 38574 ft | 491 kts | 356° |
| 2026-05-04 13:37 | 65.38067 | 32.06362 | 38589 ft | 489 kts | 356° |
| 2026-05-04 13:38 | 65.44842 | 32.06752 | 38591 ft | 489 kts | 356° |
| 2026-05-04 13:38 | 65.51616 | 32.07144 | 38590 ft | 488 kts | 356° |
| 2026-05-04 13:39 | 65.58375 | 32.07524 | 38610 ft | 490 kts | 356° |
| 2026-05-04 13:39 | 65.65148 | 32.07828 | 38612 ft | 493 kts | 356° |
| 2026-05-04 13:40 | 65.71950 | 32.08143 | 38615 ft | 494 kts | 356° |
| 2026-05-04 13:40 | 65.78771 | 32.08464 | 38612 ft | 495 kts | 356° |
| 2026-05-04 13:41 | 65.85645 | 32.08792 | 38612 ft | 495 kts | 356° |
| 2026-05-04 13:41 | 65.92474 | 32.09119 | 38613 ft | 495 kts | 356° |
| 2026-05-04 13:42 | 66.02807 | 32.09616 | 38615 ft | 496 kts | 356° |
| 2026-05-04 13:42 | 66.09637 | 32.09950 | 38614 ft | 496 kts | 356° |
| 2026-05-04 13:43 | 66.16522 | 32.10290 | 38621 ft | 496 kts | 356° |
| 2026-05-04 13:43 | 66.23361 | 32.10627 | 38615 ft | 496 kts | 356° |
| 2026-05-04 13:44 | 66.30136 | 32.10963 | 38616 ft | 496 kts | 356° |
| 2026-05-04 13:44 | 66.36990 | 32.11303 | 38615 ft | 497 kts | 356° |
| 2026-05-04 13:45 | 66.43802 | 32.12917 | 38631 ft | 503 kts | 9° |
| 2026-05-04 13:45 | 66.50539 | 32.17582 | 38618 ft | 505 kts | 10° |
| 2026-05-04 13:46 | 66.57320 | 32.21991 | 38620 ft | 505 kts | 9° |
| 2026-05-04 13:46 | 66.60658 | 32.24081 | 38494 ft | 497 kts | 9° |
| 2026-05-04 13:46 | 66.63943 | 32.26129 | 38110 ft | 487 kts | 8° |
| 2026-05-04 13:47 | 66.67181 | 32.28137 | 37370 ft | 488 kts | 8° |
| 2026-05-04 13:47 | 66.70442 | 32.30160 | 36592 ft | 489 kts | 8° |
| 2026-05-04 13:47 | 66.73759 | 32.32223 | 35846 ft | 489 kts | 7° |
| 2026-05-04 13:47 | 66.77011 | 32.34253 | 35168 ft | 487 kts | 7° |
| 2026-05-04 13:48 | 66.80224 | 32.36269 | 34685 ft | 482 kts | 7° |
| 2026-05-04 13:48 | 66.83448 | 32.38297 | 34238 ft | 478 kts | 6° |
| 2026-05-04 13:48 | 66.86669 | 32.40326 | 33728 ft | 476 kts | 6° |
| 2026-05-04 13:48 | 66.89854 | 32.42334 | 33228 ft | 473 kts | 6° |
| 2026-05-04 13:49 | 66.92982 | 32.44314 | 32744 ft | 471 kts | 5° |
| 2026-05-04 13:49 | 66.96161 | 32.46330 | 32263 ft | 469 kts | 5° |
| 2026-05-04 13:49 | 66.99314 | 32.48337 | 31788 ft | 467 kts | 5° |
| 2026-05-04 13:49 | 67.02437 | 32.50330 | 31287 ft | 465 kts | 4° |
| 2026-05-04 13:50 | 67.05532 | 32.52308 | 30797 ft | 463 kts | 4° |
| 2026-05-04 13:50 | 67.08653 | 32.54309 | 30312 ft | 461 kts | 4° |
| 2026-05-04 13:50 | 67.11706 | 32.56273 | 29784 ft | 461 kts | 3° |
| 2026-05-04 13:50 | 67.14795 | 32.58256 | 29186 ft | 461 kts | 4° |
| 2026-05-04 13:51 | 67.17862 | 32.60235 | 28682 ft | 459 kts | 4° |
| 2026-05-04 13:51 | 67.20970 | 32.62252 | 28226 ft | 455 kts | 4° |
| 2026-05-04 13:51 | 67.23972 | 32.64206 | 27764 ft | 452 kts | 4° |
| 2026-05-04 13:51 | 67.26994 | 32.66180 | 27280 ft | 449 kts | 5° |
| 2026-05-04 13:52 | 67.33003 | 32.70139 | 26295 ft | 443 kts | 5° |
| 2026-05-04 13:52 | 67.35963 | 32.72091 | 25820 ft | 440 kts | 5° |
| 2026-05-04 13:52 | 67.38902 | 32.74030 | 25368 ft | 436 kts | 6° |
| 2026-05-04 13:53 | 67.41800 | 32.75943 | 24921 ft | 433 kts | 6° |
| 2026-05-04 13:53 | 67.44704 | 32.77866 | 24459 ft | 429 kts | 6° |
| 2026-05-04 13:53 | 67.47595 | 32.79168 | 23984 ft | 412 kts | 353° |
| 2026-05-04 13:54 | 67.53124 | 32.78543 | 23117 ft | 397 kts | 348° |
| 2026-05-04 13:54 | 67.55871 | 32.78198 | 22667 ft | 394 kts | 349° |
| 2026-05-04 13:54 | 67.61292 | 32.77816 | 21770 ft | 389 kts | 351° |
| 2026-05-04 13:55 | 67.63979 | 32.77696 | 21319 ft | 385 kts | 351° |
| 2026-05-04 13:55 | 67.69268 | 32.77487 | 20431 ft | 379 kts | 352° |
| 2026-05-04 13:55 | 67.71885 | 32.77385 | 19996 ft | 375 kts | 353° |
| 2026-05-04 13:56 | 67.74451 | 32.77285 | 19571 ft | 372 kts | 353° |
| 2026-05-04 13:56 | 67.77024 | 32.77184 | 19140 ft | 368 kts | 353° |
| 2026-05-04 13:56 | 67.82095 | 32.76989 | 18301 ft | 361 kts | 354° |
| 2026-05-04 13:57 | 67.84577 | 32.76893 | 17892 ft | 357 kts | 354° |
| 2026-05-04 13:57 | 67.87048 | 32.76797 | 17481 ft | 354 kts | 354° |
| 2026-05-04 13:58 | 67.94257 | 32.76514 | 16223 ft | 346 kts | 354° |
| 2026-05-04 13:58 | 67.99090 | 32.76318 | 15384 ft | 346 kts | 355° |
| 2026-05-04 13:58 | 68.01495 | 32.76272 | 14967 ft | 343 kts | 355° |
| 2026-05-04 13:59 | 68.03866 | 32.76250 | 14565 ft | 340 kts | 356° |
| 2026-05-04 13:59 | 68.06219 | 32.76225 | 14112 ft | 339 kts | 356° |
| 2026-05-04 13:59 | 68.10883 | 32.76158 | 13061 ft | 340 kts | 356° |
| 2026-05-04 14:00 | 68.13270 | 32.76123 | 12423 ft | 342 kts | 356° |
| 2026-05-04 14:00 | 68.17951 | 32.76059 | 11226 ft | 336 kts | 356° |
| 2026-05-04 14:00 | 68.20277 | 32.76027 | 10822 ft | 328 kts | 356° |
| 2026-05-04 14:01 | 68.22505 | 32.75997 | 10422 ft | 319 kts | 356° |
| 2026-05-04 14:01 | 68.24651 | 32.75972 | 10139 ft | 298 kts | 356° |
| 2026-05-04 14:01 | 68.28610 | 32.75914 | 9470 ft | 282 kts | 356° |
| 2026-05-04 14:02 | 68.30572 | 32.75864 | 9147 ft | 283 kts | 356° |
| 2026-05-04 14:02 | 68.32538 | 32.75826 | 8833 ft | 284 kts | 356° |
| 2026-05-04 14:02 | 68.34523 | 32.75796 | 8504 ft | 285 kts | 356° |
| 2026-05-04 14:02 | 68.36497 | 32.75766 | 8186 ft | 285 kts | 356° |
| 2026-05-04 14:03 | 68.38458 | 32.75736 | 7879 ft | 282 kts | 356° |
| 2026-05-04 14:03 | 68.40405 | 32.75708 | 7564 ft | 279 kts | 356° |
| 2026-05-04 14:03 | 68.42316 | 32.75679 | 7246 ft | 276 kts | 356° |
| 2026-05-04 14:03 | 68.44232 | 32.75822 | 6928 ft | 274 kts | 359° |
| 2026-05-04 14:04 | 68.47980 | 32.76265 | 6283 ft | 270 kts | 359° |
| 2026-05-04 14:04 | 68.49832 | 32.76471 | 5959 ft | 268 kts | 359° |
| 2026-05-04 14:04 | 68.51704 | 32.76677 | 5642 ft | 266 kts | 359° |
| 2026-05-04 14:05 | 68.55215 | 32.75364 | 4988 ft | 252 kts | 352° |
| 2026-05-04 14:05 | 68.56956 | 32.75676 | 4714 ft | 249 kts | 13° |
| 2026-05-04 14:05 | 68.58441 | 32.77706 | 4550 ft | 233 kts | 41° |
| 2026-05-04 14:06 | 68.59372 | 32.81099 | 4465 ft | 211 kts | 66° |
| 2026-05-04 14:06 | 68.59983 | 32.84504 | 4233 ft | 195 kts | 64° |
| 2026-05-04 14:06 | 68.60625 | 32.87626 | 3950 ft | 180 kts | 58° |
| 2026-05-04 14:06 | 68.61253 | 32.90385 | 3599 ft | 165 kts | 57° |
| 2026-05-04 14:07 | 68.61880 | 32.92952 | 3096 ft | 164 kts | 57° |
| 2026-05-04 14:07 | 68.62508 | 32.95526 | 2607 ft | 160 kts | 56° |
| 2026-05-04 14:07 | 68.63126 | 32.98051 | 2473 ft | 167 kts | 57° |
| 2026-05-04 14:07 | 68.64014 | 33.00251 | 2472 ft | 176 kts | 24° |
| 2026-05-04 14:08 | 68.65203 | 33.00584 | 2315 ft | 169 kts | 342° |
| 2026-05-04 14:08 | 68.66111 | 32.98889 | 2074 ft | 155 kts | 308° |
| 2026-05-04 14:08 | 68.66807 | 32.96712 | 1865 ft | 150 kts | 313° |
| 2026-05-04 14:08 | 68.67609 | 32.94856 | 1985 ft | 153 kts | 320° |
| 2026-05-04 14:09 | 68.69378 | 32.91359 | 1904 ft | 154 kts | 321° |
| 2026-05-04 14:09 | 68.70230 | 32.89774 | 1918 ft | 144 kts | 323° |
| 2026-05-04 14:10 | 68.72004 | 32.86488 | 1554 ft | 159 kts | 324° |
| 2026-05-04 14:10 | 68.72922 | 32.84802 | 1329 ft | 157 kts | 323° |
| 2026-05-04 14:10 | 68.73811 | 32.83173 | 1109 ft | 153 kts | 324° |
| 2026-05-04 14:10 | 68.74689 | 32.81612 | 916 ft | 147 kts | 326° |
| 2026-05-04 14:11 | 68.75555 | 32.80084 | 712 ft | 149 kts | 324° |
| 2026-05-04 14:11 | 68.77290 | 32.76844 | 318 ft | 153 kts | 324° |
| 2026-05-04 14:11 | 68.78107 | 32.75339 | 275 ft | 124 kts | 324° |
| 2026-05-04 14:12 | 68.78637 | 32.74349 | 275 ft | 55 kts | 326° |
| 2026-05-04 14:12 | 68.78812 | 32.74031 | 274 ft | 16 kts | 326° |
| 2026-05-04 14:12 | 68.78995 | 32.73999 | 274 ft | 11 kts | 24° |
| 2026-05-04 14:13 | 68.79063 | 32.74068 | 275 ft | 8 kts | 4° |
| 2026-05-04 14:13 | 68.79114 | 32.74007 | 275 ft | 7 kts | 330° |
| 2026-05-04 14:13 | 68.79157 | 32.73919 | 274 ft | 7 kts | 310° |
| 2026-05-04 14:13 | 68.79153 | 32.73792 | 274 ft | 7 kts | 242° |
| 2026-05-04 14:14 | 68.79125 | 32.73669 | 274 ft | 7 kts | 236° |
| 2026-05-04 14:14 | 68.79042 | 32.73600 | 275 ft | 7 kts | 148° |
| 2026-05-04 14:14 | 68.78996 | 32.73682 | 274 ft | 8 kts | 145° |
| 2026-05-04 14:15 | 68.78902 | 32.73863 | 274 ft | 8 kts | 146° |
| 2026-05-04 14:15 | 68.78798 | 32.74054 | 274 ft | 9 kts | 147° |
| 2026-05-04 14:16 | 68.78688 | 32.74251 | 274 ft | 9 kts | 147° |
| 2026-05-04 14:16 | 68.78631 | 32.74357 | 274 ft | 10 kts | 145° |
| 2026-05-04 14:17 | 68.78513 | 32.74591 | 275 ft | 10 kts | 147° |
| 2026-05-04 14:17 | 68.78449 | 32.74706 | 275 ft | 11 kts | 146° |
| 2026-05-04 14:17 | 68.78320 | 32.74939 | 274 ft | 11 kts | 145° |
| 2026-05-04 14:18 | 68.78300 | 32.75119 | 274 ft | 10 kts | 63° |
| 2026-05-04 14:18 | 68.78382 | 32.75451 | 275 ft | 10 kts | 56° |
| 2026-05-04 14:19 | 68.78445 | 32.75715 | 274 ft | 3 kts | 71° |
| 2026-05-04 14:19 | 68.78440 | 32.75771 | 274 ft | 1 kts | 123° |
| 2026-05-04 14:19 | 68.78434 | 32.75789 | 274 ft | 0 kts | 135° |
| 2026-05-04 14:19 | 68.78429 | 32.75800 | 274 ft | 0 kts | 138° |
| 2026-05-04 14:20 | 68.78423 | 32.75812 | 274 ft | 1 kts | 143° |
| 2026-05-04 14:20 | 68.78413 | 32.75832 | 274 ft | 2 kts | 145° |
| 2026-05-04 14:20 | 68.78405 | 32.75848 | 275 ft | 0 kts | 145° |